Terminal Aerodrome Forecast
Issued by NWS Louisville, KY

Home | Current Version | Previous Version | Text Only | Print | Product List | Glossary On
Versions: 1 2 3 4 5 6 7 8 9 10 11 12 13 14
796
FTUS43 KLMK 221130
TAFBWG
TAF
KBWG 221130Z 2212/2312 00000KT 1/4SM FG VV002
     FM221230 00000KT 2SM BR BKN003
      TEMPO 2213/2214 3/4SM BR VV004
     FM221400 34008KT P6SM SKC
     FM230000 VRB03KT P6SM SKC
     FM230600 00000KT 3SM BR SKC=

USA.gov is the U.S. government's official web portal to all federal, state and local government web resources and services.